Terminal Aerodrome Forecast
Issued by NWS Jackson, KY

Home | Current Version | Previous Version | Text Only | Print | Product List | Glossary On
Versions: 1 2 3 4 5 6 7 8 9 10 11 12
078
FTUS43 KJKL 170539
TAFLOZ
TAF
KLOZ 170539Z 1706/1806 VRB04KT P6SM -SHSN SCT025
     FM170700 VRB03KT P6SM VCSH BKN025
     FM171000 30006KT 6SM -SHSN BKN015
     FM172300 VRB05KT P6SM SCT015=

USA.gov is the U.S. government's official web portal to all federal, state and local government web resources and services.